0A7 weather

Hendersonville Airport
Hendersonville, North Carolina, United States

Public forecast

Using degrees Fahrenheit for public forecast. Weather courtesy of forecast.io.

Closest aviation weather report (METAR) to Hendersonville Airport

Closest report is Asheville Regional Airport, 9.4 nm (17.4 km) NW. Retrieved 2020/04/02 11:54 UTC (19 minutes ago):

KAVL 021154Z 34011KT 10SM CLR 06/00 A3007 RMK AO2 SLP182 7//// T00610000 10061 20056 53016

Closest aviation forecast (TAF) to Hendersonville Airport

Closest forecast is Asheville Regional Airport, 9.4 nm (17.4 km) NW. Retrieved 2020/04/02 12:22 UTC (0 seconds ago):

TAF KAVL 021120Z 0212/0312 34012KT P6SM SCT250 FM021600 35012G20KT P6SM SKC FM022200 35011KT P6SM SKC FM030700 34005KT P6SM SKC